sensor_id;sensor_type;location;lat;lon;timestamp;pressure;altitude;pressure_sealevel;temperature;humidity
11605;BME280;5858;43.076;25.626;2023-03-03T00:00:18;99597.50;;;6.38;99.60
11605;BME280;5858;43.076;25.626;2023-03-03T00:02:47;99591.03;;;6.40;99.61
11605;BME280;5858;43.076;25.626;2023-03-03T00:05:14;99595.53;;;6.40;100.00
11605;BME280;5858;43.076;25.626;2023-03-03T00:07:43;99449.81;;;5.45;99.87
11605;BME280;5858;43.076;25.626;2023-03-03T00:10:12;99554.13;;;6.19;99.99
11605;BME280;5858;43.076;25.626;2023-03-03T00:12:46;99596.59;;;6.47;100.00
11605;BME280;5858;43.076;25.626;2023-03-03T00:15:15;99517.72;;;6.02;100.00
11605;BME280;5858;43.076;25.626;2023-03-03T00:17:43;99529.56;;;6.08;100.00
11605;BME280;5858;43.076;25.626;2023-03-03T00:20:32;99575.31;;;6.47;99.81
11605;BME280;5858;43.076;25.626;2023-03-03T00:23:12;99542.44;;;6.30;100.00
11605;BME280;5858;43.076;25.626;2023-03-03T00:25:43;99543.50;;;6.19;99.97
11605;BME280;5858;43.076;25.626;2023-03-03T00:28:22;99542.44;;;6.30;100.00
11605;BME280;5858;43.076;25.626;2023-03-03T00:30:50;99580.88;;;6.36;100.00
11605;BME280;5858;43.076;25.626;2023-03-03T00:33:40;99557.25;;;6.32;100.00
11605;BME280;5858;43.076;25.626;2023-03-03T00:36:30;99508.91;;;6.02;100.00
11605;BME280;5858;43.076;25.626;2023-03-03T00:39:18;99432.03;;;5.55;100.00
11605;BME280;5858;43.076;25.626;2023-03-03T00:41:48;99477.84;;;5.84;100.00
11605;BME280;5858;43.076;25.626;2023-03-03T00:44:38;99401.81;;;5.38;100.00
11605;BME280;5858;43.076;25.626;2023-03-03T00:47:29;99350.28;;;5.13;100.00
11605;BME280;5858;43.076;25.626;2023-03-03T00:53:19;99433.59;;;5.75;100.00
11605;BME280;5858;43.076;25.626;2023-03-03T00:55:48;99550.03;;;6.43;99.90
11605;BME280;5858;43.076;25.626;2023-03-03T00:58:16;99527.09;;;6.42;99.90
11605;BME280;5858;43.076;25.626;2023-03-03T01:00:46;99456.59;;;5.84;99.72
11605;BME280;5858;43.076;25.626;2023-03-03T01:03:15;99528.09;;;6.41;99.65
11605;BME280;5858;43.076;25.626;2023-03-03T01:05:46;99416.59;;;5.68;99.55
11605;BME280;5858;43.076;25.626;2023-03-03T01:08:13;99526.94;;;6.43;99.76
11605;BME280;5858;43.076;25.626;2023-03-03T01:10:45;99361.88;;;5.57;98.54
11605;BME280;5858;43.076;25.626;2023-03-03T01:13:16;99544.41;;;6.46;98.87
11605;BME280;5858;43.076;25.626;2023-03-03T01:15:43;99519.72;;;6.53;98.65
11605;BME280;5858;43.076;25.626;2023-03-03T01:18:11;99511.22;;;6.50;99.34
11605;BME280;5858;43.076;25.626;2023-03-03T01:20:39;99518.91;;;6.35;100.00
11605;BME280;5858;43.076;25.626;2023-03-03T01:23:06;99509.25;;;6.34;100.00
11605;BME280;5858;43.076;25.626;2023-03-03T01:25:34;99408.50;;;5.60;100.00
11605;BME280;5858;43.076;25.626;2023-03-03T01:28:03;99479.69;;;6.02;100.00
11605;BME280;5858;43.076;25.626;2023-03-03T01:30:30;99510.53;;;6.12;100.00
11605;BME280;5858;43.076;25.626;2023-03-03T01:32:57;99507.31;;;6.09;100.00
11605;BME280;5858;43.076;25.626;2023-03-03T01:35:25;99477.38;;;5.89;100.00
11605;BME280;5858;43.076;25.626;2023-03-03T01:37:54;99512.09;;;6.05;100.00
11605;BME280;5858;43.076;25.626;2023-03-03T01:40:24;99495.47;;;6.03;100.00
11605;BME280;5858;43.076;25.626;2023-03-03T01:42:51;99491.84;;;6.04;100.00
11605;BME280;5858;43.076;25.626;2023-03-03T01:45:23;99451.53;;;5.63;100.00
11605;BME280;5858;43.076;25.626;2023-03-03T01:47:54;99463.50;;;5.67;100.00
11605;BME280;5858;43.076;25.626;2023-03-03T01:50:41;99493.59;;;5.86;100.00
11605;BME280;5858;43.076;25.626;2023-03-03T01:53:14;99473.72;;;5.72;100.00
11605;BME280;5858;43.076;25.626;2023-03-03T01:55:42;99461.56;;;5.69;100.00
11605;BME280;5858;43.076;25.626;2023-03-03T01:58:13;99492.47;;;5.88;100.00
11605;BME280;5858;43.076;25.626;2023-03-03T02:00:46;99402.50;;;5.40;100.00
11605;BME280;5858;43.076;25.626;2023-03-03T02:03:17;99496.56;;;5.83;100.00
11605;BME280;5858;43.076;25.626;2023-03-03T02:05:46;99330.88;;;4.85;100.00
11605;BME280;5858;43.076;25.626;2023-03-03T02:08:19;99482.69;;;5.89;100.00
11605;BME280;5858;43.076;25.626;2023-03-03T02:10:49;99479.16;;;5.98;100.00
11605;BME280;5858;43.076;25.626;2023-03-03T02:13:17;99478.66;;;5.85;100.00
11605;BME280;5858;43.076;25.626;2023-03-03T02:15:46;99349.00;;;5.17;100.00
11605;BME280;5858;43.076;25.626;2023-03-03T02:18:14;99428.91;;;5.59;100.00
11605;BME280;5858;43.076;25.626;2023-03-03T02:20:50;99485.41;;;6.07;100.00
11605;BME280;5858;43.076;25.626;2023-03-03T02:23:22;99446.41;;;5.80;100.00
11605;BME280;5858;43.076;25.626;2023-03-03T02:26:03;99382.94;;;5.14;100.00
11605;BME280;5858;43.076;25.626;2023-03-03T02:28:33;99438.38;;;5.72;100.00
11605;BME280;5858;43.076;25.626;2023-03-03T02:31:04;99390.06;;;5.41;100.00
11605;BME280;5858;43.076;25.626;2023-03-03T02:33:32;99437.91;;;5.76;100.00
11605;BME280;5858;43.076;25.626;2023-03-03T02:35:59;99491.69;;;6.06;100.00
11605;BME280;5858;43.076;25.626;2023-03-03T02:38:29;99431.38;;;5.71;100.00
11605;BME280;5858;43.076;25.626;2023-03-03T02:41:06;99445.41;;;5.90;100.00
11605;BME280;5858;43.076;25.626;2023-03-03T02:43:39;99453.75;;;5.95;100.00
11605;BME280;5858;43.076;25.626;2023-03-03T02:46:07;99473.75;;;6.17;100.00
11605;BME280;5858;43.076;25.626;2023-03-03T02:48:34;99460.56;;;5.98;99.73
11605;BME280;5858;43.076;25.626;2023-03-03T02:51:01;99412.53;;;5.64;99.71
11605;BME280;5858;43.076;25.626;2023-03-03T02:53:28;99422.19;;;5.65;100.00
11605;BME280;5858;43.076;25.626;2023-03-03T02:55:55;99496.22;;;6.23;100.00
11605;BME280;5858;43.076;25.626;2023-03-03T02:58:24;99462.78;;;6.03;100.00
11605;BME280;5858;43.076;25.626;2023-03-03T03:00:51;99392.22;;;5.55;100.00
11605;BME280;5858;43.076;25.626;2023-03-03T03:03:20;99506.97;;;6.21;100.00
11605;BME280;5858;43.076;25.626;2023-03-03T03:05:47;99387.72;;;5.55;100.00
11605;BME280;5858;43.076;25.626;2023-03-03T03:08:14;99498.34;;;6.19;100.00
11605;BME280;5858;43.076;25.626;2023-03-03T03:10:42;99494.56;;;6.12;100.00
11605;BME280;5858;43.076;25.626;2023-03-03T03:13:09;99498.75;;;6.15;100.00
11605;BME280;5858;43.076;25.626;2023-03-03T03:15:38;99454.63;;;5.86;100.00
11605;BME280;5858;43.076;25.626;2023-03-03T03:18:05;99400.09;;;5.47;100.00
11605;BME280;5858;43.076;25.626;2023-03-03T03:20:35;99391.59;;;5.61;100.00
11605;BME280;5858;43.076;25.626;2023-03-03T03:23:04;99479.25;;;6.06;100.00
11605;BME280;5858;43.076;25.626;2023-03-03T03:25:31;99412.38;;;5.65;100.00
11605;BME280;5858;43.076;25.626;2023-03-03T03:27:58;99439.44;;;5.79;100.00
11605;BME280;5858;43.076;25.626;2023-03-03T03:30:25;99375.06;;;5.49;100.00
11605;BME280;5858;43.076;25.626;2023-03-03T03:32:54;99471.19;;;5.98;100.00
11605;BME280;5858;43.076;25.626;2023-03-03T03:35:22;99485.63;;;6.13;100.00
11605;BME280;5858;43.076;25.626;2023-03-03T03:37:49;99458.00;;;6.06;100.00
11605;BME280;5858;43.076;25.626;2023-03-03T03:40:16;99479.88;;;6.18;100.00
11605;BME280;5858;43.076;25.626;2023-03-03T03:42:44;99406.94;;;5.67;100.00
11605;BME280;5858;43.076;25.626;2023-03-03T03:45:12;99467.66;;;6.25;100.00
11605;BME280;5858;43.076;25.626;2023-03-03T03:47:41;99460.81;;;6.05;100.00
11605;BME280;5858;43.076;25.626;2023-03-03T03:50:11;99473.44;;;6.20;100.00
11605;BME280;5858;43.076;25.626;2023-03-03T03:52:38;99441.44;;;5.94;100.00
11605;BME280;5858;43.076;25.626;2023-03-03T03:55:06;99485.34;;;6.16;100.00
11605;BME280;5858;43.076;25.626;2023-03-03T03:57:33;99415.91;;;5.84;100.00
11605;BME280;5858;43.076;25.626;2023-03-03T04:00:00;99438.34;;;5.99;100.00
11605;BME280;5858;43.076;25.626;2023-03-03T04:02:28;99379.56;;;5.66;100.00
11605;BME280;5858;43.076;25.626;2023-03-03T04:04:55;99462.19;;;6.26;99.38
11605;BME280;5858;43.076;25.626;2023-03-03T04:07:24;99427.63;;;5.91;98.69
11605;BME280;5858;43.076;25.626;2023-03-03T04:09:51;99440.34;;;5.87;99.50
11605;BME280;5858;43.076;25.626;2023-03-03T04:12:18;99331.22;;;5.27;99.98
11605;BME280;5858;43.076;25.626;2023-03-03T04:14:45;99459.66;;;6.07;100.00
11605;BME280;5858;43.076;25.626;2023-03-03T04:17:15;99443.81;;;5.97;99.80
11605;BME280;5858;43.076;25.626;2023-03-03T04:19:43;99395.25;;;5.60;99.85
11605;BME280;5858;43.076;25.626;2023-03-03T04:22:10;99459.88;;;6.14;99.25
11605;BME280;5858;43.076;25.626;2023-03-03T04:24:40;99450.25;;;6.13;99.25
11605;BME280;5858;43.076;25.626;2023-03-03T04:27:07;99438.13;;;5.92;99.34
11605;BME280;5858;43.076;25.626;2023-03-03T04:29:34;99445.09;;;6.11;98.80
11605;BME280;5858;43.076;25.626;2023-03-03T04:32:07;99381.38;;;5.48;100.00
11605;BME280;5858;43.076;25.626;2023-03-03T04:34:36;99446.06;;;5.92;100.00
11605;BME280;5858;43.076;25.626;2023-03-03T04:37:08;99441.03;;;5.72;100.00
11605;BME280;5858;43.076;25.626;2023-03-03T04:39:36;99457.53;;;5.93;100.00
11605;BME280;5858;43.076;25.626;2023-03-03T04:42:05;99425.81;;;5.64;100.00
11605;BME280;5858;43.076;25.626;2023-03-03T04:44:32;99372.19;;;5.43;100.00
11605;BME280;5858;43.076;25.626;2023-03-03T04:46:59;99274.69;;;4.72;100.00
11605;BME280;5858;43.076;25.626;2023-03-03T04:49:27;99423.47;;;5.61;100.00
11605;BME280;5858;43.076;25.626;2023-03-03T04:51:56;99428.22;;;5.57;100.00
11605;BME280;5858;43.076;25.626;2023-03-03T04:54:24;99456.53;;;5.66;100.00
11605;BME280;5858;43.076;25.626;2023-03-03T04:56:51;99416.31;;;5.44;100.00
11605;BME280;5858;43.076;25.626;2023-03-03T04:59:19;99450.97;;;5.60;100.00
11605;BME280;5858;43.076;25.626;2023-03-03T05:01:50;99471.47;;;5.67;100.00
11605;BME280;5858;43.076;25.626;2023-03-03T05:04:20;99377.81;;;5.02;100.00
11605;BME280;5858;43.076;25.626;2023-03-03T05:06:47;99476.91;;;5.76;100.00
11605;BME280;5858;43.076;25.626;2023-03-03T05:09:14;99467.56;;;5.72;100.00
11605;BME280;5858;43.076;25.626;2023-03-03T05:11:41;99424.56;;;5.41;100.00
11605;BME280;5858;43.076;25.626;2023-03-03T05:14:08;99381.50;;;4.92;100.00
11605;BME280;5858;43.076;25.626;2023-03-03T05:16:38;99429.41;;;5.18;100.00
11605;BME280;5858;43.076;25.626;2023-03-03T05:19:05;99428.41;;;5.28;100.00
11605;BME280;5858;43.076;25.626;2023-03-03T05:21:32;99397.06;;;5.04;100.00
11605;BME280;5858;43.076;25.626;2023-03-03T05:23:59;99435.53;;;5.18;100.00
11605;BME280;5858;43.076;25.626;2023-03-03T05:26:26;99442.66;;;5.18;100.00
11605;BME280;5858;43.076;25.626;2023-03-03T05:28:53;99361.94;;;4.56;100.00
11605;BME280;5858;43.076;25.626;2023-03-03T05:31:20;99351.97;;;4.40;100.00
11605;BME280;5858;43.076;25.626;2023-03-03T05:33:49;99457.03;;;5.25;100.00
11605;BME280;5858;43.076;25.626;2023-03-03T05:36:19;99420.03;;;4.86;100.00
11605;BME280;5858;43.076;25.626;2023-03-03T05:38:47;99397.47;;;4.72;100.00
11605;BME280;5858;43.076;25.626;2023-03-03T05:41:14;99433.56;;;4.93;100.00
11605;BME280;5858;43.076;25.626;2023-03-03T05:43:42;99381.47;;;4.55;100.00
11605;BME280;5858;43.076;25.626;2023-03-03T05:46:09;99467.56;;;5.07;100.00
11605;BME280;5858;43.076;25.626;2023-03-03T05:48:37;99391.09;;;4.56;100.00
11605;BME280;5858;43.076;25.626;2023-03-03T05:51:05;99481.16;;;5.31;100.00
11605;BME280;5858;43.076;25.626;2023-03-03T05:53:33;99353.38;;;4.34;100.00
11605;BME280;5858;43.076;25.626;2023-03-03T05:56:01;99474.78;;;5.24;100.00
11605;BME280;5858;43.076;25.626;2023-03-03T05:58:28;99496.28;;;5.21;100.00
11605;BME280;5858;43.076;25.626;2023-03-03T06:00:56;99487.59;;;5.29;100.00
11605;BME280;5858;43.076;25.626;2023-03-03T06:03:23;99448.84;;;5.09;100.00
11605;BME280;5858;43.076;25.626;2023-03-03T06:05:50;99398.72;;;4.68;100.00
11605;BME280;5858;43.076;25.626;2023-03-03T06:08:19;99473.81;;;5.16;100.00
11605;BME280;5858;43.076;25.626;2023-03-03T06:10:46;99504.59;;;5.36;100.00
11605;BME280;5858;43.076;25.626;2023-03-03T06:13:13;99487.84;;;5.35;100.00
11605;BME280;5858;43.076;25.626;2023-03-03T06:15:40;99415.44;;;4.88;100.00
11605;BME280;5858;43.076;25.626;2023-03-03T06:18:08;99472.75;;;5.36;100.00
11605;BME280;5858;43.076;25.626;2023-03-03T06:20:35;99462.88;;;5.28;100.00
11605;BME280;5858;43.076;25.626;2023-03-03T06:23:03;99496.09;;;5.60;100.00
11605;BME280;5858;43.076;25.626;2023-03-03T06:25:32;99444.22;;;5.20;100.00
11605;BME280;5858;43.076;25.626;2023-03-03T06:28:00;99496.50;;;5.65;100.00
11605;BME280;5858;43.076;25.626;2023-03-03T06:30:27;99462.69;;;5.40;100.00
11605;BME280;5858;43.076;25.626;2023-03-03T06:32:56;99495.13;;;5.61;100.00
11605;BME280;5858;43.076;25.626;2023-03-03T06:35:23;99439.16;;;5.27;100.00
11605;BME280;5858;43.076;25.626;2023-03-03T06:37:50;99470.06;;;5.46;100.00
11605;BME280;5858;43.076;25.626;2023-03-03T06:40:17;99409.78;;;5.01;100.00
11605;BME280;5858;43.076;25.626;2023-03-03T06:42:46;99496.63;;;5.73;100.00
11605;BME280;5858;43.076;25.626;2023-03-03T06:45:13;99462.63;;;5.49;100.00
11605;BME280;5858;43.076;25.626;2023-03-03T06:47:41;99452.63;;;5.43;100.00
11605;BME280;5858;43.076;25.626;2023-03-03T06:50:10;99504.53;;;5.83;100.00
11605;BME280;5858;43.076;25.626;2023-03-03T06:52:38;99405.22;;;5.30;100.00
11605;BME280;5858;43.076;25.626;2023-03-03T06:55:11;99507.31;;;5.91;100.00
11605;BME280;5858;43.076;25.626;2023-03-03T06:57:40;99458.91;;;5.69;100.00
11605;BME280;5858;43.076;25.626;2023-03-03T07:00:16;99396.66;;;5.36;100.00
11605;BME280;5858;43.076;25.626;2023-03-03T07:02:45;99460.38;;;5.82;100.00
11605;BME280;5858;43.076;25.626;2023-03-03T07:05:15;99423.28;;;5.45;100.00
11605;BME280;5858;43.076;25.626;2023-03-03T07:07:45;99370.94;;;5.10;100.00
11605;BME280;5858;43.076;25.626;2023-03-03T07:10:26;99432.97;;;5.36;100.00
11605;BME280;5858;43.076;25.626;2023-03-03T07:12:59;99461.59;;;5.60;100.00
11605;BME280;5858;43.076;25.626;2023-03-03T07:15:34;99392.16;;;5.10;100.00
11605;BME280;5858;43.076;25.626;2023-03-03T07:18:25;99460.16;;;5.65;100.00
11605;BME280;5858;43.076;25.626;2023-03-03T07:23:47;99388.78;;;5.45;100.00
11605;BME280;5858;43.076;25.626;2023-03-03T07:26:17;99433.13;;;5.80;100.00
11605;BME280;5858;43.076;25.626;2023-03-03T07:28:51;99481.28;;;6.12;100.00
11605;BME280;5858;43.076;25.626;2023-03-03T07:31:34;99390.47;;;5.63;100.00
11605;BME280;5858;43.076;25.626;2023-03-03T07:34:04;99457.75;;;5.99;100.00
11605;BME280;5858;43.076;25.626;2023-03-03T07:36:43;99428.63;;;5.90;100.00
11605;BME280;5858;43.076;25.626;2023-03-03T07:39:43;99300.19;;;5.10;100.00
11605;BME280;5858;43.076;25.626;2023-03-03T07:42:19;99487.56;;;6.21;100.00
11605;BME280;5858;43.076;25.626;2023-03-03T07:44:46;99412.19;;;5.77;100.00
11605;BME280;5858;43.076;25.626;2023-03-03T07:47:36;99477.19;;;6.00;100.00
11605;BME280;5858;43.076;25.626;2023-03-03T07:50:18;99439.66;;;5.85;100.00
11605;BME280;5858;43.076;25.626;2023-03-03T07:52:53;99433.22;;;5.88;100.00
11605;BME280;5858;43.076;25.626;2023-03-03T07:55:33;99431.34;;;5.98;100.00
11605;BME280;5858;43.076;25.626;2023-03-03T07:58:21;99358.88;;;5.70;100.00
11605;BME280;5858;43.076;25.626;2023-03-03T08:03:50;99332.22;;;5.62;100.00
11605;BME280;5858;43.076;25.626;2023-03-03T08:06:48;99466.41;;;6.55;100.00
11605;BME280;5858;43.076;25.626;2023-03-03T08:12:30;99453.31;;;6.79;100.00
11605;BME280;5858;43.076;25.626;2023-03-03T08:15:16;99420.00;;;6.67;100.00
11605;BME280;5858;43.076;25.626;2023-03-03T08:17:45;99385.00;;;6.54;100.00
11605;BME280;5858;43.076;25.626;2023-03-03T08:20:46;99325.81;;;6.18;99.87
11605;BME280;5858;43.076;25.626;2023-03-03T08:23:15;99441.31;;;7.01;99.39
11605;BME280;5858;43.076;25.626;2023-03-03T08:25:45;99259.41;;;6.00;99.21
11605;BME280;5858;43.076;25.626;2023-03-03T08:28:20;99457.59;;;7.24;99.53
11605;BME280;5858;43.076;25.626;2023-03-03T08:31:08;99276.38;;;6.07;99.15
11605;BME280;5858;43.076;25.626;2023-03-03T08:33:38;99472.91;;;7.30;99.20
11605;BME280;5858;43.076;25.626;2023-03-03T08:36:09;99451.31;;;7.07;98.26
11605;BME280;5858;43.076;25.626;2023-03-03T08:38:46;99379.19;;;6.76;98.42
11605;BME280;5858;43.076;25.626;2023-03-03T08:41:14;99370.88;;;6.79;98.18
11605;BME280;5858;43.076;25.626;2023-03-03T08:43:41;99372.22;;;6.83;98.59
11605;BME280;5858;43.076;25.626;2023-03-03T08:46:10;99382.22;;;6.89;98.02
11605;BME280;5858;43.076;25.626;2023-03-03T08:48:37;99415.13;;;7.14;97.30
11605;BME280;5858;43.076;25.626;2023-03-03T08:51:06;99332.41;;;6.66;97.20
11605;BME280;5858;43.076;25.626;2023-03-03T08:53:38;99427.34;;;7.33;97.86
11605;BME280;5858;43.076;25.626;2023-03-03T08:56:09;99427.19;;;7.35;97.71
11605;BME280;5858;43.076;25.626;2023-03-03T08:58:38;99339.41;;;6.67;97.54
11605;BME280;5858;43.076;25.626;2023-03-03T09:01:13;99433.16;;;7.29;98.30
11605;BME280;5858;43.076;25.626;2023-03-03T09:03:41;99374.28;;;6.98;97.76
11605;BME280;5858;43.076;25.626;2023-03-03T09:06:11;99384.09;;;6.97;97.37
11605;BME280;5858;43.076;25.626;2023-03-03T09:08:41;99271.53;;;6.20;98.10
11605;BME280;5858;43.076;25.626;2023-03-03T09:11:10;99335.44;;;6.71;96.79
11605;BME280;5858;43.076;25.626;2023-03-03T09:13:39;99361.72;;;6.74;96.86
11605;BME280;5858;43.076;25.626;2023-03-03T09:16:12;99343.91;;;6.66;97.03
11605;BME280;5858;43.076;25.626;2023-03-03T09:18:40;99303.06;;;6.49;97.82
11605;BME280;5858;43.076;25.626;2023-03-03T09:21:27;99417.06;;;7.38;96.95
11605;BME280;5858;43.076;25.626;2023-03-03T09:23:59;99386.28;;;7.02;97.40
11605;BME280;5858;43.076;25.626;2023-03-03T09:26:28;99361.41;;;6.77;97.72
11605;BME280;5858;43.076;25.626;2023-03-03T09:29:07;99420.97;;;7.18;98.01
11605;BME280;5858;43.076;25.626;2023-03-03T09:31:39;99244.19;;;6.36;97.60
11605;BME280;5858;43.076;25.626;2023-03-03T09:34:20;99385.72;;;7.24;97.21
11605;BME280;5858;43.076;25.626;2023-03-03T09:36:48;99421.00;;;7.68;96.41
11605;BME280;5858;43.076;25.626;2023-03-03T09:39:18;99412.88;;;7.78;95.73
11605;BME280;5858;43.076;25.626;2023-03-03T09:42:17;99360.00;;;7.41;95.65
11605;BME280;5858;43.076;25.626;2023-03-03T09:48:03;99421.09;;;8.09;93.47
11605;BME280;5858;43.076;25.626;2023-03-03T09:50:44;99347.94;;;7.79;92.81
11605;BME280;5858;43.076;25.626;2023-03-03T09:53:21;99302.28;;;7.49;92.34
11605;BME280;5858;43.076;25.626;2023-03-03T09:55:58;99207.38;;;7.08;91.86
11605;BME280;5858;43.076;25.626;2023-03-03T09:58:40;99410.94;;;8.29;91.52
11605;BME280;5858;43.076;25.626;2023-03-03T10:01:36;99241.06;;;7.41;90.72
11605;BME280;5858;43.076;25.626;2023-03-03T10:04:34;99305.81;;;7.74;90.90
11605;BME280;5858;43.076;25.626;2023-03-03T10:07:17;99362.28;;;8.02;92.12
11605;BME280;5858;43.076;25.626;2023-03-03T10:10:05;99387.97;;;8.36;92.12
11605;BME280;5858;43.076;25.626;2023-03-03T10:12:41;99291.84;;;7.97;89.89
11605;BME280;5858;43.076;25.626;2023-03-03T10:15:31;99405.41;;;8.87;88.68
11605;BME280;5858;43.076;25.626;2023-03-03T10:18:12;99393.88;;;9.03;88.18
11605;BME280;5858;43.076;25.626;2023-03-03T10:20:56;99391.19;;;9.11;87.60
11605;BME280;5858;43.076;25.626;2023-03-03T10:23:42;99381.91;;;9.38;87.53
11605;BME280;5858;43.076;25.626;2023-03-03T10:26:21;99306.13;;;9.08;85.95
11605;BME280;5858;43.076;25.626;2023-03-03T10:29:03;99313.91;;;9.18;85.55
11605;BME280;5858;43.076;25.626;2023-03-03T10:31:48;99376.69;;;9.75;84.17
11605;BME280;5858;43.076;25.626;2023-03-03T10:34:32;99277.22;;;9.42;84.04
11605;BME280;5858;43.076;25.626;2023-03-03T10:37:09;99310.25;;;9.95;82.82
11605;BME280;5858;43.076;25.626;2023-03-03T10:39:52;99261.59;;;10.00;81.65
11605;BME280;5858;43.076;25.626;2023-03-03T10:42:35;99317.53;;;10.62;79.33
11605;BME280;5858;43.076;25.626;2023-03-03T10:45:33;99299.81;;;10.46;76.55
11605;BME280;5858;43.076;25.626;2023-03-03T10:48:13;99281.81;;;10.17;76.52
11605;BME280;5858;43.076;25.626;2023-03-03T10:50:50;99306.72;;;10.18;76.31
11605;BME280;5858;43.076;25.626;2023-03-03T10:53:21;99298.56;;;9.96;79.19
11605;BME280;5858;43.076;25.626;2023-03-03T10:56:03;99349.69;;;10.39;78.52
11605;BME280;5858;43.076;25.626;2023-03-03T10:58:45;99329.88;;;10.48;77.97
11605;BME280;5858;43.076;25.626;2023-03-03T11:01:25;99328.97;;;10.41;77.99
11605;BME280;5858;43.076;25.626;2023-03-03T11:04:20;99342.75;;;10.30;78.17
11605;BME280;5858;43.076;25.626;2023-03-03T11:06:54;99269.84;;;9.90;79.88
11605;BME280;5858;43.076;25.626;2023-03-03T11:09:36;99256.09;;;10.01;79.83
11605;BME280;5858;43.076;25.626;2023-03-03T11:12:20;99312.44;;;10.52;78.79
11605;BME280;5858;43.076;25.626;2023-03-03T11:15:02;99178.47;;;9.57;77.74
11605;BME280;5858;43.076;25.626;2023-03-03T11:17:51;99330.72;;;10.49;79.37
11605;BME280;5858;43.076;25.626;2023-03-03T11:20:30;99174.34;;;9.69;79.69
11605;BME280;5858;43.076;25.626;2023-03-03T11:23:23;99264.44;;;10.21;80.11
11605;BME280;5858;43.076;25.626;2023-03-03T11:26:01;99311.06;;;10.56;79.47
11605;BME280;5858;43.076;25.626;2023-03-03T11:28:54;99203.44;;;10.02;78.79
11605;BME280;5858;43.076;25.626;2023-03-03T11:31:29;99190.41;;;9.84;79.44
11605;BME280;5858;43.076;25.626;2023-03-03T11:34:13;99305.03;;;10.02;80.44
11605;BME280;5858;43.076;25.626;2023-03-03T11:36:48;99195.91;;;9.45;81.87
11605;BME280;5858;43.076;25.626;2023-03-03T11:39:31;99119.25;;;8.62;82.41
11605;BME280;5858;43.076;25.626;2023-03-03T11:42:19;99207.94;;;8.64;84.33
11605;BME280;5858;43.076;25.626;2023-03-03T11:45:10;99253.38;;;8.79;85.77
11605;BME280;5858;43.076;25.626;2023-03-03T11:47:47;99174.69;;;8.36;86.90
11605;BME280;5858;43.076;25.626;2023-03-03T11:50:27;99258.81;;;8.94;87.34
11605;BME280;5858;43.076;25.626;2023-03-03T11:53:25;99215.13;;;8.56;87.42
11605;BME280;5858;43.076;25.626;2023-03-03T11:56:16;99191.03;;;8.25;87.16
11605;BME280;5858;43.076;25.626;2023-03-03T11:58:50;99289.19;;;8.84;88.09
11605;BME280;5858;43.076;25.626;2023-03-03T12:01:31;99287.72;;;8.82;88.24
11605;BME280;5858;43.076;25.626;2023-03-03T12:04:03;99170.50;;;7.70;88.86
11605;BME280;5858;43.076;25.626;2023-03-03T12:06:49;99278.66;;;8.52;89.70
11605;BME280;5858;43.076;25.626;2023-03-03T12:09:29;99287.63;;;8.59;88.80
11605;BME280;5858;43.076;25.626;2023-03-03T12:12:06;99105.63;;;7.63;88.26
11605;BME280;5858;43.076;25.626;2023-03-03T12:14:45;99229.50;;;8.38;88.61
11605;BME280;5858;43.076;25.626;2023-03-03T12:17:36;99291.59;;;8.71;88.95
11605;BME280;5858;43.076;25.626;2023-03-03T12:20:17;99138.38;;;7.79;87.78
11605;BME280;5858;43.076;25.626;2023-03-03T12:22:59;99246.97;;;8.57;87.43
11605;BME280;5858;43.076;25.626;2023-03-03T12:25:34;99228.00;;;8.28;86.69
11605;BME280;5858;43.076;25.626;2023-03-03T12:28:08;99143.53;;;7.73;86.70
11605;BME280;5858;43.076;25.626;2023-03-03T12:30:48;99288.44;;;8.68;87.18
11605;BME280;5858;43.076;25.626;2023-03-03T12:33:30;99309.59;;;8.69;87.36
11605;BME280;5858;43.076;25.626;2023-03-03T12:36:08;99302.81;;;8.59;88.57
11605;BME280;5858;43.076;25.626;2023-03-03T12:38:49;99297.97;;;8.46;89.22
11605;BME280;5858;43.076;25.626;2023-03-03T12:41:21;99200.63;;;7.62;90.03
11605;BME280;5858;43.076;25.626;2023-03-03T12:44:01;99292.34;;;8.16;90.71
11605;BME280;5858;43.076;25.626;2023-03-03T12:46:43;99198.97;;;7.29;92.08
11605;BME280;5858;43.076;25.626;2023-03-03T12:49:14;99294.16;;;8.00;92.01
11605;BME280;5858;43.076;25.626;2023-03-03T12:52:01;99210.28;;;7.55;91.57
11605;BME280;5858;43.076;25.626;2023-03-03T12:54:50;99273.34;;;8.03;91.00
11605;BME280;5858;43.076;25.626;2023-03-03T12:57:24;99264.03;;;8.07;91.08
11605;BME280;5858;43.076;25.626;2023-03-03T13:00:20;99294.13;;;8.32;91.18
11605;BME280;5858;43.076;25.626;2023-03-03T13:03:04;99188.31;;;7.53;90.86
11605;BME280;5858;43.076;25.626;2023-03-03T13:05:50;99202.78;;;7.42;92.06
11605;BME280;5858;43.076;25.626;2023-03-03T13:08:44;99302.50;;;8.21;92.15
11605;BME280;5858;43.076;25.626;2023-03-03T13:11:35;99110.94;;;6.98;91.93
11605;BME280;5858;43.076;25.626;2023-03-03T13:14:15;99287.66;;;8.27;91.63
11605;BME280;5858;43.076;25.626;2023-03-03T13:17:00;99302.81;;;8.42;90.99
11605;BME280;5858;43.076;25.626;2023-03-03T13:19:34;99232.22;;;7.98;90.76
11605;BME280;5858;43.076;25.626;2023-03-03T13:22:08;99284.84;;;8.12;91.69
11605;BME280;5858;43.076;25.626;2023-03-03T13:24:44;99232.41;;;7.88;91.64
11605;BME280;5858;43.076;25.626;2023-03-03T13:27:23;99169.84;;;7.51;91.55
11605;BME280;5858;43.076;25.626;2023-03-03T13:29:56;99186.16;;;7.48;91.40
11605;BME280;5858;43.076;25.626;2023-03-03T13:32:30;99193.63;;;7.53;91.92
11605;BME280;5858;43.076;25.626;2023-03-03T13:35:05;99237.25;;;7.76;92.47
11605;BME280;5858;43.076;25.626;2023-03-03T13:37:36;99293.00;;;8.27;92.75
11605;BME280;5858;43.076;25.626;2023-03-03T13:40:15;99229.91;;;7.78;92.80
11605;BME280;5858;43.076;25.626;2023-03-03T13:42:48;99285.34;;;8.24;93.31
11605;BME280;5858;43.076;25.626;2023-03-03T13:45:22;99257.53;;;8.18;93.69
11605;BME280;5858;43.076;25.626;2023-03-03T13:47:58;99238.88;;;8.10;93.99
11605;BME280;5858;43.076;25.626;2023-03-03T13:50:33;99282.84;;;8.14;94.63
11605;BME280;5858;43.076;25.626;2023-03-03T13:53:28;99151.72;;;7.31;95.04
11605;BME280;5858;43.076;25.626;2023-03-03T13:56:10;99259.22;;;7.70;95.86